createdAt,value
2018-12-25T00:01:03.464Z,9.87
2018-12-25T00:03:34.106Z,15.33
2018-12-25T00:06:04.835Z,9.33
2018-12-25T00:08:35.552Z,12.67
2018-12-25T00:11:06.357Z,13.33
2018-12-25T00:13:37.143Z,13.83
2018-12-25T00:16:07.872Z,10.17
2018-12-25T00:18:38.576Z,13.10
2018-12-25T00:21:09.293Z,13.90
2018-12-25T00:23:40.295Z,11.30
2018-12-25T00:26:11.054Z,14.47
2018-12-25T00:28:41.738Z,13.43
2018-12-25T00:31:12.540Z,11.50
2018-12-25T00:33:43.303Z,9.93
2018-12-25T00:36:14.070Z,13.57
2018-12-25T00:38:44.785Z,15.57
2018-12-25T00:41:15.578Z,9.27
2018-12-25T00:43:46.322Z,9.83
2018-12-25T00:46:17.062Z,9.60
2018-12-25T00:48:47.878Z,9.47
2018-12-25T00:51:18.538Z,11.60
2018-12-25T00:53:49.221Z,8.90
2018-12-25T00:56:20.180Z,10.57
2018-12-25T00:58:50.861Z,8.57
2018-12-25T01:01:21.675Z,7.80
2018-12-25T01:03:52.450Z,7.40
2018-12-25T01:06:23.367Z,9.33
2018-12-25T01:08:54.171Z,9.83
2018-12-25T01:11:24.948Z,11.60
2018-12-25T01:13:55.786Z,10.83
2018-12-25T01:16:26.546Z,14.00
2018-12-25T01:18:57.306Z,13.00
2018-12-25T01:21:28.108Z,11.83
2018-12-25T01:23:58.904Z,9.97
2018-12-25T01:26:29.671Z,9.77
2018-12-25T01:29:00.390Z,9.50
2018-12-25T01:31:31.092Z,13.30
2018-12-25T01:34:01.774Z,10.03
2018-12-25T01:36:32.533Z,12.67
2018-12-25T01:39:04.241Z,10.10
2018-12-25T01:41:35.049Z,9.57
2018-12-25T01:44:05.898Z,9.27
2018-12-25T01:46:36.755Z,10.07
2018-12-25T01:49:07.682Z,9.93
2018-12-25T01:51:38.469Z,10.57
2018-12-25T01:54:09.161Z,11.57
2018-12-25T01:56:39.783Z,9.23
2018-12-25T01:59:10.445Z,10.33
2018-12-25T02:20:07.260Z,8.53
2018-12-25T02:22:38.042Z,11.40
2018-12-25T02:25:09.027Z,8.50
2018-12-25T02:27:39.850Z,10.57
2018-12-25T02:30:10.757Z,7.23
2018-12-25T02:32:41.551Z,7.50
2018-12-25T02:35:12.381Z,6.60
2018-12-25T02:37:43.270Z,6.80
2018-12-25T02:40:14.052Z,5.47
2018-12-25T02:42:44.855Z,6.90
2018-12-25T02:45:15.793Z,6.60
2018-12-25T02:47:46.576Z,5.50
2018-12-25T02:50:20.443Z,6.30
2018-12-25T02:52:51.811Z,5.33
2018-12-25T02:55:22.637Z,5.17
2018-12-25T02:57:53.503Z,3.70
2018-12-25T03:00:24.306Z,6.87
2018-12-25T03:02:55.075Z,5.33
2018-12-25T03:05:25.963Z,4.03
2018-12-25T03:07:56.800Z,5.10
2018-12-25T03:10:27.647Z,2.93
2018-12-25T03:12:58.455Z,4.07
2018-12-25T03:15:29.310Z,5.53
2018-12-25T03:18:00.280Z,3.23
2018-12-25T03:20:31.054Z,3.73
2018-12-25T03:23:01.904Z,7.83
2018-12-25T03:25:32.671Z,3.10
2018-12-25T03:28:03.483Z,4.50
2018-12-25T03:30:34.256Z,3.63
2018-12-25T03:33:05.119Z,2.60
2018-12-25T03:35:35.925Z,4.77
2018-12-25T03:38:06.685Z,4.50
2018-12-25T03:40:38.404Z,1.73
2018-12-25T03:43:09.178Z,5.50
2018-12-25T03:45:40.106Z,3.30
2018-12-25T03:48:10.956Z,3.37
2018-12-25T03:50:41.780Z,3.50
2018-12-25T03:53:12.522Z,1.77
2018-12-25T03:55:43.349Z,3.73
2018-12-25T03:58:14.106Z,2.13
2018-12-25T04:00:44.956Z,2.90
2018-12-25T04:03:15.839Z,1.30
2018-12-25T04:05:46.641Z,4.00
2018-12-25T04:08:17.583Z,4.70
2018-12-25T04:10:48.419Z,3.57
2018-12-25T04:13:19.284Z,1.23
2018-12-25T04:15:50.156Z,3.73
2018-12-25T04:18:20.997Z,3.00
2018-12-25T04:20:51.790Z,4.57
2018-12-25T04:23:22.600Z,3.10
2018-12-25T04:25:53.373Z,3.27
2018-12-25T04:28:24.090Z,3.83
2018-12-25T04:30:54.959Z,2.63
2018-12-25T04:33:25.653Z,2.90
2018-12-25T04:35:56.402Z,3.57
2018-12-25T04:38:27.122Z,3.00
2018-12-25T04:40:57.962Z,2.63
2018-12-25T04:43:28.679Z,4.90
2018-12-25T04:45:59.522Z,2.77
2018-12-25T04:48:30.204Z,5.63
2018-12-25T04:51:00.955Z,4.43
2018-12-25T04:53:31.739Z,4.27
2018-12-25T04:56:02.466Z,5.00
2018-12-25T04:58:33.177Z,4.93
2018-12-25T05:01:03.902Z,5.27
2018-12-25T05:03:34.673Z,5.97
2018-12-25T05:06:05.398Z,10.93
2018-12-25T05:08:36.070Z,4.80
2018-12-25T05:11:06.790Z,6.17
2018-12-25T05:13:37.538Z,4.20
2018-12-25T05:16:08.265Z,4.80
2018-12-25T05:18:38.911Z,4.33
2018-12-25T05:21:09.617Z,6.30
2018-12-25T05:23:40.369Z,3.13
2018-12-25T05:26:11.229Z,6.33
2018-12-25T05:28:41.989Z,3.73
2018-12-25T05:31:12.918Z,3.20
2018-12-25T05:33:43.882Z,4.83
2018-12-25T05:36:14.578Z,4.33
2018-12-25T05:38:45.309Z,3.10
2018-12-25T05:41:16.007Z,5.00
2018-12-25T05:43:46.811Z,6.57
2018-12-25T05:46:17.654Z,5.23
2018-12-25T05:48:48.650Z,5.10
2018-12-25T05:51:19.410Z,6.07
2018-12-25T05:53:50.238Z,9.17
2018-12-25T05:56:20.992Z,6.93
2018-12-25T05:58:51.785Z,10.53
2018-12-25T06:01:22.898Z,7.90
2018-12-25T06:03:53.704Z,5.50
2018-12-25T06:06:24.491Z,5.80
2018-12-25T06:08:55.171Z,6.63
2018-12-25T06:11:25.942Z,8.77
2018-12-25T06:13:56.673Z,5.63
2018-12-25T06:16:27.477Z,6.37
2018-12-25T06:18:58.206Z,6.03
2018-12-25T06:21:29.043Z,7.80
2018-12-25T06:23:59.822Z,4.90
2018-12-25T06:26:30.718Z,8.40
2018-12-25T06:29:01.555Z,6.27
2018-12-25T06:31:32.243Z,10.63
2018-12-25T06:34:03.152Z,7.73
2018-12-25T06:36:33.936Z,6.57
2018-12-25T06:39:05.675Z,6.70
2018-12-25T06:41:36.821Z,6.57
2018-12-25T06:44:07.665Z,7.70
2018-12-25T06:46:38.294Z,7.03
2018-12-25T06:49:08.998Z,4.77
2018-12-25T06:51:39.795Z,6.87
2018-12-25T06:54:10.569Z,7.30
2018-12-25T06:56:41.495Z,11.83
2018-12-25T06:59:12.333Z,6.70
2018-12-25T07:01:43.098Z,6.97
2018-12-25T07:04:13.969Z,9.83
2018-12-25T07:06:44.695Z,10.53
2018-12-25T07:09:15.429Z,9.80
2018-12-25T07:11:46.242Z,10.40
2018-12-25T07:14:17.018Z,11.20
2018-12-25T07:16:47.886Z,8.43
2018-12-25T07:19:18.743Z,12.93
2018-12-25T07:21:49.419Z,13.13
2018-12-25T07:24:20.205Z,14.83
2018-12-25T07:26:50.957Z,11.30
2018-12-25T07:29:21.768Z,12.87
2018-12-25T07:31:52.620Z,13.67
2018-12-25T07:34:23.553Z,15.13
2018-12-25T07:36:54.418Z,15.40
2018-12-25T07:39:25.199Z,16.33
2018-12-25T07:41:55.954Z,15.23
2018-12-25T07:44:26.766Z,18.30
2018-12-25T07:46:57.479Z,13.93
2018-12-25T07:49:28.270Z,19.07
2018-12-25T07:51:59.056Z,21.87
2018-12-25T07:54:29.830Z,18.53
2018-12-25T07:57:00.537Z,15.80
2018-12-25T07:59:31.304Z,18.80
2018-12-25T08:02:02.158Z,16.30
2018-12-25T08:04:32.958Z,19.27
2018-12-25T08:07:03.773Z,20.73
2018-12-25T08:09:34.611Z,17.60
2018-12-25T08:12:05.443Z,22.57
2018-12-25T08:14:36.207Z,18.87
2018-12-25T08:17:06.938Z,16.83
2018-12-25T08:19:37.696Z,21.10
2018-12-25T08:22:08.650Z,22.53
2018-12-25T08:24:39.488Z,19.57
2018-12-25T08:27:10.458Z,19.27
2018-12-25T08:29:41.437Z,17.40
2018-12-25T08:32:12.408Z,20.60
2018-12-25T08:34:43.199Z,18.97
2018-12-25T08:37:14.068Z,17.53
2018-12-25T08:39:44.883Z,20.47
2018-12-25T08:42:15.801Z,18.60
2018-12-25T08:44:46.479Z,18.00
2018-12-25T08:47:17.554Z,16.67
2018-12-25T08:49:50.226Z,20.67
2018-12-25T08:52:20.865Z,17.63
2018-12-25T08:54:51.690Z,17.23
2018-12-25T08:57:22.366Z,19.57
2018-12-25T08:59:53.202Z,20.07
2018-12-25T09:02:24.041Z,17.57
2018-12-25T09:04:54.862Z,18.97
2018-12-25T09:07:25.885Z,23.40
2018-12-25T09:09:59.937Z,17.33
2018-12-25T09:12:30.675Z,23.00
2018-12-25T09:15:01.569Z,18.60
2018-12-25T09:17:32.462Z,19.40
2018-12-25T09:20:03.354Z,20.77
2018-12-25T09:22:34.287Z,21.57
2018-12-25T09:25:05.447Z,21.13
2018-12-25T09:27:36.296Z,25.43
2018-12-25T09:30:07.383Z,20.57
2018-12-25T09:32:38.281Z,24.57
2018-12-25T09:35:09.127Z,25.77
2018-12-25T09:37:39.916Z,25.33
2018-12-25T09:40:10.670Z,21.50
2018-12-25T09:42:41.518Z,23.73
2018-12-25T09:45:12.480Z,28.67
2018-12-25T09:47:43.327Z,24.87
2018-12-25T09:50:14.201Z,28.30
2018-12-25T09:52:44.936Z,26.37
2018-12-25T09:55:15.844Z,26.33
2018-12-25T09:57:46.628Z,26.33
2018-12-25T10:00:17.462Z,27.53
2018-12-25T10:02:48.268Z,27.93
2018-12-25T10:05:19.180Z,30.93
2018-12-25T10:07:50.079Z,31.13
2018-12-25T10:10:21.142Z,29.63
2018-12-25T10:12:51.904Z,25.03
2018-12-25T10:15:22.689Z,29.23
2018-12-25T10:17:53.706Z,27.67
2018-12-25T10:20:24.437Z,28.17
2018-12-25T10:22:55.299Z,31.57
2018-12-25T10:25:26.501Z,26.80
2018-12-25T10:27:57.283Z,30.43
2018-12-25T10:30:28.080Z,32.30
2018-12-25T10:32:58.909Z,29.43
2018-12-25T10:35:29.810Z,28.70
2018-12-25T10:38:00.680Z,29.33
2018-12-25T10:40:31.422Z,31.30
2018-12-25T10:43:02.256Z,32.83
2018-12-25T10:45:33.094Z,29.77
2018-12-25T10:48:04.286Z,28.23
2018-12-25T10:50:35.162Z,35.83
2018-12-25T10:53:05.943Z,30.63
2018-12-25T10:55:36.750Z,33.93
2018-12-25T10:58:07.719Z,29.33
2018-12-25T11:00:51.766Z,31.50
2018-12-25T11:03:22.598Z,33.77
2018-12-25T11:05:53.445Z,34.60
2018-12-25T11:08:24.232Z,32.03
2018-12-25T11:10:56.097Z,36.33
2018-12-25T11:13:27.178Z,31.80
2018-12-25T11:15:58.188Z,31.43
2018-12-25T11:18:29.023Z,31.03
2018-12-25T11:20:59.976Z,32.10
2018-12-25T11:23:30.914Z,32.67
2018-12-25T11:26:01.854Z,32.20
2018-12-25T11:28:32.649Z,37.13
2018-12-25T11:31:03.384Z,33.27
2018-12-25T11:33:34.153Z,33.37
2018-12-25T11:36:04.997Z,35.50
2018-12-25T11:38:35.684Z,36.03
2018-12-25T11:41:06.438Z,35.93
2018-12-25T11:43:38.977Z,41.00
2018-12-25T11:46:09.769Z,33.83
2018-12-25T11:48:40.627Z,37.30
2018-12-25T11:51:11.505Z,36.50
2018-12-25T11:53:42.330Z,36.67
2018-12-25T11:56:13.215Z,38.87
2018-12-25T11:58:44.043Z,37.43
2018-12-25T12:01:14.893Z,34.27
2018-12-25T12:03:45.714Z,35.27
2018-12-25T12:06:16.539Z,34.50
2018-12-25T12:08:47.354Z,37.73
2018-12-25T12:11:20.201Z,37.97
2018-12-25T12:13:50.898Z,37.10
2018-12-25T12:16:21.799Z,37.80
2018-12-25T12:19:15.663Z,34.83
2018-12-25T12:21:47.442Z,35.40
2018-12-25T12:24:18.343Z,38.10
2018-12-25T12:26:49.319Z,38.27
2018-12-25T12:29:20.186Z,35.70
2018-12-25T12:31:53.526Z,39.50
2018-12-25T12:34:25.287Z,40.23
2018-12-25T12:36:56.698Z,39.00
2018-12-25T12:39:27.436Z,36.80
2018-12-25T12:41:59.152Z,39.10
2018-12-25T12:44:29.930Z,36.53
2018-12-25T12:47:00.714Z,37.47
2018-12-25T12:49:31.595Z,41.90
2018-12-25T12:52:03.473Z,36.87
2018-12-25T12:54:34.246Z,40.17
2018-12-25T12:57:05.971Z,37.27
2018-12-25T12:59:37.020Z,34.60
2018-12-25T13:02:07.705Z,33.27
2018-12-25T13:04:38.936Z,36.13
2018-12-25T13:07:10.006Z,34.40
2018-12-25T13:09:40.671Z,35.37
2018-12-25T13:12:11.441Z,39.40
2018-12-25T13:14:42.681Z,35.53
2018-12-25T13:17:13.891Z,37.57
2018-12-25T13:19:44.625Z,34.27
2018-12-25T13:22:15.485Z,35.03
2018-12-25T13:24:47.236Z,37.77
2018-12-25T13:27:18.422Z,36.53
2018-12-25T13:29:50.343Z,40.77
2018-12-25T13:32:22.926Z,38.17
2018-12-25T13:34:54.621Z,35.57
2018-12-25T13:37:26.510Z,37.87
2018-12-25T13:39:57.262Z,38.90
2018-12-25T13:42:27.930Z,37.33
2018-12-25T13:44:58.649Z,38.00
2018-12-25T13:47:31.169Z,38.70
2018-12-25T13:50:01.952Z,33.87
2018-12-25T13:52:34.353Z,34.73
2018-12-25T13:55:05.473Z,35.53
2018-12-25T13:57:37.111Z,37.67
2018-12-25T14:00:09.713Z,31.03
2018-12-25T14:02:42.630Z,36.90
2018-12-25T14:05:13.904Z,33.47
2018-12-25T14:07:44.698Z,29.77
2018-12-25T14:10:16.853Z,27.70
2018-12-25T14:12:48.689Z,24.97
2018-12-25T14:15:19.445Z,25.60
2018-12-25T14:17:50.217Z,25.50
2018-12-25T14:20:21.077Z,22.50
2018-12-25T14:22:51.866Z,28.60
2018-12-25T14:25:24.337Z,25.93
2018-12-25T14:27:55.046Z,26.83
2018-12-25T14:30:25.843Z,26.17
2018-12-25T14:32:57.475Z,30.20
2018-12-25T14:35:28.282Z,30.37
2018-12-25T14:37:59.771Z,32.20
2018-12-25T14:40:30.584Z,33.00
2018-12-25T14:43:02.619Z,34.63
2018-12-25T14:45:33.509Z,35.13
2018-12-25T14:48:04.202Z,34.13
2018-12-25T14:50:35.937Z,29.07
2018-12-25T14:53:07.061Z,33.20
2018-12-25T14:55:38.927Z,32.70
2018-12-25T14:58:10.729Z,34.97
2018-12-25T15:00:42.081Z,32.33
2018-12-25T15:03:14.137Z,32.73
2018-12-25T15:05:44.745Z,34.93
2018-12-25T15:08:16.558Z,28.30
2018-12-25T15:10:47.321Z,33.70
2018-12-25T15:13:18.107Z,35.07
2018-12-25T15:15:48.798Z,33.77
2018-12-25T15:18:19.585Z,31.67
2018-12-25T15:20:51.389Z,30.50
2018-12-25T15:23:28.151Z,35.93
2018-12-25T15:25:54.470Z,33.00
2018-12-25T15:28:25.162Z,38.03
2018-12-25T15:30:55.928Z,38.93
2018-12-25T15:33:26.690Z,35.53
2018-12-25T15:35:57.482Z,36.63
2018-12-25T15:38:28.323Z,37.70
2018-12-25T15:40:59.118Z,39.30
2018-12-25T15:43:29.870Z,37.50
2018-12-25T15:46:02.427Z,37.67
2018-12-25T15:48:33.370Z,36.70
2018-12-25T15:51:04.170Z,38.17
2018-12-25T15:53:37.158Z,41.50
2018-12-25T15:56:07.384Z,37.93
2018-12-25T15:58:38.125Z,37.33
2018-12-25T16:01:08.842Z,40.63
2018-12-25T16:03:39.593Z,39.57
2018-12-25T16:06:10.357Z,36.97
2018-12-25T16:08:41.105Z,41.53
2018-12-25T16:11:11.753Z,40.23
2018-12-25T16:13:42.508Z,41.00
2018-12-25T16:16:14.204Z,44.33
2018-12-25T16:18:44.864Z,42.87
2018-12-25T16:21:15.659Z,48.60
2018-12-25T16:23:46.498Z,47.70
2018-12-25T16:26:17.252Z,43.80
2018-12-25T16:28:48.019Z,46.63
2018-12-25T16:31:18.822Z,46.23
2018-12-25T16:33:49.568Z,45.47
2018-12-25T16:36:20.404Z,50.47
2018-12-25T16:38:51.258Z,45.33
2018-12-25T16:41:21.957Z,48.40
2018-12-25T16:43:52.765Z,47.53
2018-12-25T16:46:23.515Z,51.07
2018-12-25T16:48:54.300Z,45.40
2018-12-25T16:51:26.131Z,46.43
2018-12-25T16:53:56.950Z,52.17
2018-12-25T16:56:27.682Z,46.30
2018-12-25T16:58:58.383Z,41.47
2018-12-25T17:01:29.159Z,45.77
2018-12-25T17:03:59.838Z,45.90
2018-12-25T17:06:30.621Z,47.93
2018-12-25T17:09:01.426Z,48.33
2018-12-25T17:11:34.049Z,44.97
2018-12-25T17:14:04.875Z,50.60
2018-12-25T17:16:35.606Z,41.73
2018-12-25T17:19:06.442Z,47.70
2018-12-25T17:21:37.211Z,48.57
2018-12-25T17:24:07.990Z,50.67
2018-12-25T17:26:38.754Z,49.97
2018-12-25T17:29:09.584Z,57.80
2018-12-25T17:31:40.327Z,52.40
2018-12-25T17:34:11.134Z,44.80
2018-12-25T17:36:41.878Z,46.53
2018-12-25T17:39:12.790Z,52.27
2018-12-25T17:41:43.522Z,49.17
2018-12-25T17:44:14.273Z,51.20
2018-12-25T17:46:45.013Z,53.57
2018-12-25T17:49:15.770Z,48.63
2018-12-25T17:51:46.562Z,50.23
2018-12-25T17:54:17.450Z,54.57
2018-12-25T17:56:48.299Z,48.23
2018-12-25T17:59:19.174Z,44.23
2018-12-25T18:01:50.046Z,52.33
2018-12-25T18:04:20.869Z,62.50
2018-12-25T18:06:51.710Z,52.80
2018-12-25T18:09:22.542Z,52.60
2018-12-25T18:11:53.306Z,51.87
2018-12-25T18:14:24.003Z,58.93
2018-12-25T18:16:54.756Z,48.20
2018-12-25T18:19:25.588Z,45.77
2018-12-25T18:21:56.280Z,49.03
2018-12-25T18:24:27.055Z,46.07
2018-12-25T18:26:57.842Z,54.63
2018-12-25T18:29:28.555Z,47.63
2018-12-25T18:31:59.306Z,50.53
2018-12-25T18:34:30.120Z,46.00
2018-12-25T18:37:00.963Z,51.67
2018-12-25T18:39:31.743Z,50.10
2018-12-25T18:42:02.491Z,46.43
2018-12-25T18:44:33.427Z,51.77
2018-12-25T18:47:04.254Z,51.40
2018-12-25T18:49:35.038Z,47.67
2018-12-25T18:52:05.830Z,49.93
2018-12-25T18:54:36.534Z,42.23
2018-12-25T18:57:07.400Z,47.33
2018-12-25T18:59:38.399Z,47.07
2018-12-25T19:02:09.253Z,44.73
2018-12-25T19:04:39.982Z,48.93
2018-12-25T19:07:10.714Z,45.50
2018-12-25T19:09:41.478Z,44.87
2018-12-25T19:12:12.204Z,44.70
2018-12-25T19:14:50.332Z,45.30
2018-12-25T19:17:21.159Z,46.97
2018-12-25T19:19:51.959Z,45.27
2018-12-25T19:22:22.790Z,48.20
2018-12-25T19:24:53.558Z,46.43
2018-12-25T19:27:24.345Z,46.90
2018-12-25T19:29:56.191Z,45.13
2018-12-25T19:32:26.933Z,47.47
2018-12-25T19:34:57.686Z,42.97
2018-12-25T19:37:28.520Z,51.37
2018-12-25T19:39:59.302Z,48.53
2018-12-25T19:42:30.106Z,50.07
2018-12-25T19:45:00.875Z,48.80
2018-12-25T19:47:31.717Z,42.27
2018-12-25T19:50:02.624Z,44.53
2018-12-25T19:52:33.388Z,45.40
2018-12-25T19:55:04.130Z,39.00
2018-12-25T19:57:34.938Z,40.10
2018-12-25T20:00:07.604Z,49.57
2018-12-25T20:02:38.747Z,51.30
2018-12-25T20:05:24.124Z,52.23
2018-12-25T20:08:44.251Z,52.43
2018-12-25T20:11:53.266Z,49.87
2018-12-25T20:14:57.573Z,56.93
2018-12-25T20:18:03.912Z,59.37
2018-12-25T20:21:06.231Z,62.23
2018-12-25T20:24:42.250Z,50.60
2018-12-25T20:28:05.519Z,53.43
2018-12-25T20:31:20.237Z,50.83
2018-12-25T20:34:28.246Z,50.47
2018-12-25T20:37:35.322Z,47.10
2018-12-25T20:40:41.913Z,44.10
2018-12-25T20:44:08.930Z,44.47
2018-12-25T20:47:15.308Z,52.53
2018-12-25T20:50:32.770Z,43.80
2018-12-25T20:53:28.581Z,43.00
2018-12-25T20:56:58.200Z,44.17
2018-12-25T21:00:15.769Z,41.33
2018-12-25T21:03:29.734Z,38.40
2018-12-25T21:06:56.359Z,42.97
2018-12-25T21:10:02.794Z,42.80
2018-12-25T21:13:10.097Z,42.43
2018-12-25T21:16:29.934Z,42.60
2018-12-25T21:19:37.733Z,38.43
2018-12-25T21:22:57.434Z,41.10
2018-12-25T21:26:03.950Z,43.70
2018-12-25T21:28:34.838Z,39.33
2018-12-25T21:31:05.665Z,40.03
2018-12-25T21:33:36.428Z,45.00
2018-12-25T21:36:07.198Z,40.20
2018-12-25T21:38:39.231Z,37.20
2018-12-25T21:41:12.570Z,36.80
2018-12-25T21:43:43.423Z,39.77
2018-12-25T21:47:00.720Z,36.83
2018-12-25T21:49:31.891Z,39.30
2018-12-25T21:52:03.081Z,37.87
2018-12-25T21:54:33.967Z,39.27
2018-12-25T21:57:04.803Z,41.13
2018-12-25T21:59:35.650Z,42.47
2018-12-25T22:02:06.567Z,43.77
2018-12-25T22:04:37.364Z,40.57
2018-12-25T22:07:08.251Z,42.70
2018-12-25T22:09:40.094Z,36.13
2018-12-25T22:12:10.872Z,39.97
2018-12-25T22:14:41.545Z,39.07
2018-12-25T22:17:12.338Z,42.90
2018-12-25T22:19:43.318Z,41.63
2018-12-25T22:22:14.095Z,40.73
2018-12-25T22:24:44.923Z,39.33
2018-12-25T22:27:15.708Z,41.87
2018-12-25T22:29:46.525Z,41.80
2018-12-25T22:32:17.354Z,42.20
2018-12-25T22:34:48.163Z,36.80
2018-12-25T22:37:18.997Z,41.80
2018-12-25T22:39:49.702Z,37.90
2018-12-25T22:42:20.533Z,43.03
2018-12-25T22:44:52.135Z,41.20
2018-12-25T22:47:22.895Z,38.70
2018-12-25T22:49:53.829Z,43.80
2018-12-25T22:52:24.578Z,46.17
2018-12-25T22:54:57.652Z,40.47
2018-12-25T22:57:28.659Z,48.07
2018-12-25T22:59:59.454Z,43.07
2018-12-25T23:02:30.174Z,44.13
2018-12-25T23:05:00.992Z,44.07
2018-12-25T23:07:31.756Z,46.20
2018-12-25T23:10:02.474Z,46.93
2018-12-25T23:12:33.296Z,46.80
2018-12-25T23:15:04.090Z,46.63
2018-12-25T23:17:34.862Z,51.03
2018-12-25T23:20:05.975Z,47.87
2018-12-25T23:22:36.723Z,45.27
2018-12-25T23:25:07.475Z,45.40
2018-12-25T23:27:38.279Z,46.07
2018-12-25T23:30:09.051Z,49.17
2018-12-25T23:32:39.893Z,46.93
2018-12-25T23:35:10.783Z,47.53
2018-12-25T23:37:41.785Z,48.50
2018-12-25T23:40:12.554Z,48.13
2018-12-25T23:42:43.330Z,51.17
2018-12-25T23:45:14.127Z,48.40
2018-12-25T23:47:45.050Z,48.13
2018-12-25T23:50:15.889Z,44.57
2018-12-25T23:52:46.669Z,47.27
2018-12-25T23:55:17.277Z,47.90
2018-12-25T23:57:48.131Z,46.47
